Time;durP1;ratioP1;P1;durP2;ratioP2;P2;SDS_P1;SDS_P2;PMS_P1;PMS_P2;Temp;Humidity;BMP_temperature;BMP_pressure;BME280_temperature;BME280_humidity;BME280_pressure;Samples;Min_cycle;Max_cycle;Signal;HPM_P1;HPM_P2
2021/06/14 00:02:07;;;;;;;;;;;;;;;;;;;;;
2021/06/14 00:06:14;;;;;;;;;;;;;;;;;;;;;
2021/06/14 00:10:14;;;;;;;3.83;1.83;;;;;;;23.28;54.20;100678.56;127077;1100;64406;-84
2021/06/14 00:13:27;;;;;;;;;;;;;;;;;;;;;
2021/06/14 00:21:13;;;;;;;2.70;1.70;;;;;;;23.27;53.96;100666.95;125308;1107;64317;-84
2021/06/14 00:36:21;;;;;;;2.90;1.70;;;;;;;23.27;53.98;100669.64;123940;1127;64170;-86
2021/06/14 00:40:09;;;;;;;2.90;1.80;;;;;;;23.28;53.78;100665.09;123641;1128;64539;-84
2021/06/14 00:43:27;;;;;;;;;;;;;;;;;;;;;
2021/06/14 00:50:32;;;;;;;;;;;;;;;;;;;;;
2021/06/14 00:58:38;;;;;;;2.28;1.68;;;;;;;23.26;54.09;100665.23;125965;1102;64629;-84
2021/06/14 01:05:41;;;;;;;2.90;1.90;;;;;;;23.25;53.77;100667.08;125645;1108;64128;-83
2021/06/14 01:13:28;;;;;;;;;;;;;;;;;;;;;
2021/06/14 01:17:11;;;;;;;3.20;1.90;;;;;;;23.24;53.88;100649.20;124636;1120;62985;-85
2021/06/14 01:21:02;;;;;;;2.95;1.85;;;;;;;23.25;53.81;100658.13;124030;1124;64461;-84
2021/06/14 01:29:09;;;;;;;2.60;1.77;;;;;;;23.23;53.73;100655.56;127665;1092;63975;-83
2021/06/14 01:32:34;;;;;;;2.20;1.55;;;;;;;23.24;54.01;100657.28;127158;1096;64288;-83
2021/06/14 01:36:34;;;;;;;2.40;1.63;;;;;;;23.23;54.00;100658.26;127116;1100;64289;-84
2021/06/14 01:40:21;;;;;;;2.23;1.53;;;;;;;23.23;54.07;100652.88;126390;1101;64115;-84
2021/06/14 01:47:36;;;;;;;2.75;1.70;;;;;;;23.22;53.61;100645.77;125013;1114;64256;-83
2021/06/14 01:54:50;;;;;;;;;;;;;;;;;;;;;
2021/06/14 01:58:39;;;;;;;2.65;1.70;;;;;;;23.22;53.97;100640.38;123996;1126;64294;-84
2021/06/14 02:27:15;;;;;;;;;;;;;;;;;;;;;
2021/06/14 02:31:22;;;;;;;2.50;1.70;;;;;;;23.23;53.90;100623.25;124948;1114;64368;-84
2021/06/14 02:34:45;;;;;;;2.20;1.50;;;;;;;23.24;53.54;100626.78;124836;1118;64333;-84
2021/06/14 02:42:23;;;;;;;2.80;1.90;;;;;;;23.23;54.03;100622.41;124033;1125;64403;-86
2021/06/14 02:46:03;;;;;;;;;;;;;;;;;;;;;
2021/06/14 02:49:41;;;;;;;;;;;;;;;;;;;;;
2021/06/14 02:57:25;;;;;;;;;;;;;;;;;;;;;
2021/06/14 03:04:40;;;;;;;;;;;;;;;;;;;;;
2021/06/14 03:12:15;;;;;;;3.20;1.60;;;;;;;23.21;53.88;100617.13;123929;1128;64403;-84
2021/06/14 03:15:53;;;;;;;;;;;;;;;;;;;;;
2021/06/14 03:19:31;;;;;;;;;;;;;;;;;;;;;
2021/06/14 03:27:27;;;;;;;;;;;;;;;;;;;;;
2021/06/14 03:39:03;;;;;;;2.23;1.70;;;;;;;23.15;53.57;100609.58;125375;1108;64128;-84
2021/06/14 03:42:24;;;;;;;;;;;;;;;;;;;;;
2021/06/14 03:46:01;;;;;;;;;;;;;;;;;;;;;
2021/06/14 03:53:38;;;;;;;;;;;;;;;;;;;;;
2021/06/14 03:57:00;;;;;;;;;;;;;;;;;;;;;
2021/06/14 04:00:59;;;;;;;;;;;;;;;;;;;;;
2021/06/14 04:05:03;;;;;;;;;;;;;;;;;;;;;
2021/06/14 04:08:37;;;;;;;;;;;;;;;;;;;;;
2021/06/14 04:16:21;;;;;;;4.37;2.00;;;;;;;22.93;51.40;100610.45;127228;1096;64238;-85
2021/06/14 04:23:17;;;;;;;;;;;;;;;;;;;;;
2021/06/14 04:27:34;;;;;;;6.93;2.77;;;;;;;22.83;50.58;100602.29;125578;1109;64119;-83
2021/06/14 04:30:48;;;;;;;;;;;;;;;;;;;;;
2021/06/14 04:34:28;;;;;;;;;;;;;;;;;;;;;
2021/06/14 04:38:03;;;;;;;4.30;2.10;;;;;;;22.83;50.23;100596.06;124770;1117;64374;-84
2021/06/14 04:41:14;;;;;;;;;;;;;;;;;;;;;
2021/06/14 04:44:23;;;;;;;5.60;2.00;;;;;;;22.88;50.49;100601.89;124089;1125;64201;-81
2021/06/14 04:47:52;;;;;;;;;;;;;;;;;;;;;
2021/06/14 04:50:20;;;;;;;6.20;2.20;;;;;;;22.92;49.89;100612.30;124792;1128;62334;-82
2021/06/14 04:53:03;;;;;;;4.70;2.30;;;;;;;22.92;50.20;100598.84;124227;1125;64208;-82
2021/06/14 04:55:33;;;;;;;7.10;2.45;;;;;;;22.96;49.72;100609.34;123605;1122;64119;-82
2021/06/14 04:58:10;;;;;;;4.80;2.50;;;;;;;22.96;49.53;100610.22;123785;1122;64715;-82
2021/06/14 05:01:17;;;;;;;8.40;2.50;;;;;;;22.93;49.25;100615.83;124256;1119;64660;-81
2021/06/14 05:03:46;;;;;;;10.40;2.70;;;;;;;22.89;49.50;100614.38;125045;1112;64138;-81
2021/06/14 05:06:30;;;;;;;14.13;2.90;;;;;;;22.83;49.40;100617.59;124967;1112;62597;-80
2021/06/14 05:09:10;;;;;;;7.93;2.40;;;;;;;22.83;49.21;100615.75;124957;1110;64236;-81
2021/06/14 05:12:19;;;;;;;7.37;2.83;;;;;;;22.85;49.14;100613.80;125187;1109;64387;-82
2021/06/14 05:14:50;;;;;;;6.93;2.60;;;;;;;22.86;48.61;100614.64;125262;1106;64259;-82
2021/06/14 05:18:25;;;;;;;8.83;2.60;;;;;;;22.88;48.87;100615.35;125306;1106;64024;-82
2021/06/14 05:20:56;;;;;;;7.00;2.60;;;;;;;22.86;48.96;100618.17;125191;1103;64394;-81
2021/06/14 05:23:51;;;;;;;5.27;2.50;;;;;;;22.86;48.69;100622.72;125891;1102;64541;-82
2021/06/14 05:27:10;;;;;;;10.40;2.37;;;;;;;22.86;48.94;100614.64;126065;1102;64168;-82
2021/06/14 05:32:55;;;;;;;6.03;2.57;;;;;;;22.84;48.44;100622.84;125412;1109;64131;-80
2021/06/14 05:35:24;;;;;;;6.07;2.40;;;;;;;22.85;48.86;100629.95;125395;1109;64147;-83
2021/06/14 05:38:43;;;;;;;;;;;;;;;;;;;;;
2021/06/14 05:42:20;;;;;;;;;;;;;;;;;;;;;
2021/06/14 05:45:08;;;;;;;;;;;;;;;;;;;;;
2021/06/14 05:48:39;;;;;;;;;;;;;;;;;;;;;
2021/06/14 05:51:38;;;;;;;5.80;2.40;;;;;;;22.89;48.64;100611.69;126223;1112;62075;-82
2021/06/14 05:54:22;;;;;;;7.67;2.87;;;;;;;22.85;48.02;100610.23;124769;1112;63106;-84
2021/06/14 05:57:11;;;;;;;17.00;3.50;;;;;;;22.78;48.06;100609.03;124422;1113;64227;-82
2021/06/14 05:59:59;;;;;;;15.97;3.33;;;;;;;22.74;47.78;100614.64;125657;1109;62417;-82
2021/06/14 06:02:26;;;;;;;9.13;3.27;;;;;;;22.69;47.94;100610.63;126305;1109;62963;-82
2021/06/14 06:04:54;;;;;;;16.30;3.13;;;;;;;22.69;48.09;100613.31;126237;1109;62343;-81
2021/06/14 06:07:20;;;;;;;10.10;2.77;;;;;;;22.72;47.69;100619.31;126419;1109;62622;-82
2021/06/14 06:09:47;;;;;;;12.85;2.50;;;;;;;22.75;47.62;100610.14;126608;1103;62660;-82
2021/06/14 06:12:13;;;;;;;10.27;2.60;;;;;;;22.78;47.35;100620.64;126961;1103;63354;-83
2021/06/14 06:14:40;;;;;;;8.00;2.63;;;;;;;22.80;47.90;100621.39;126909;1103;62336;-83
2021/06/14 06:17:10;;;;;;;8.70;2.73;;;;;;;22.83;47.78;100626.51;126940;1103;62599;-83
2021/06/14 06:19:37;;;;;;;13.57;2.90;;;;;;;22.86;47.79;100611.95;125549;1103;64224;-82
2021/06/14 06:22:10;;;;;;;8.33;2.70;;;;;;;22.86;47.41;100623.56;125420;1103;64198;-82
2021/06/14 06:24:51;;;;;;;5.13;2.27;;;;;;;22.84;47.54;100622.84;125430;1103;64322;-82
2021/06/14 06:27:50;;;;;;;;;;;;;;;;;;;;;
2021/06/14 06:30:49;;;;;;;7.75;2.15;;;;;;;22.88;46.90;100626.12;126313;1100;64013;-81
2021/06/14 06:33:27;;;;;;;;;;;;;;;;;;;;;
2021/06/14 06:36:27;;;;;;;9.50;2.70;;;;;;;22.90;46.77;100619.63;126524;1098;64191;-84
2021/06/14 06:39:16;;;;;;;9.47;2.50;;;;;;;22.92;46.98;100616.84;126122;1101;64348;-81
2021/06/14 06:41:49;;;;;;;8.90;2.40;;;;;;;22.93;46.98;100614.02;125969;1103;62526;-81
2021/06/14 06:44:57;;;;;;;;;;;;;;;;;;;;;
2021/06/14 06:48:08;;;;;;;10.80;2.73;;;;;;;22.93;46.66;100607.76;126252;1100;62486;-81
2021/06/14 06:50:55;;;;;;;;;;;;;;;;;;;;;
2021/06/14 06:53:43;;;;;;;12.50;2.87;;;;;;;22.90;46.41;100606.17;126278;1100;62613;-81
2021/06/14 06:56:09;;;;;;;16.53;3.03;;;;;;;22.88;46.40;100601.89;126065;1100;64555;-82
2021/06/14 06:58:45;;;;;;;15.23;3.33;;;;;;;22.83;46.44;100604.14;126536;1100;64115;-81
2021/06/14 07:01:12;;;;;;;11.70;2.67;;;;;;;22.75;46.57;100604.75;126539;1100;63157;-81
2021/06/14 07:03:41;;;;;;;11.67;2.77;;;;;;;22.73;46.16;100607.58;126572;1100;64113;-82
2021/06/14 07:06:08;;;;;;;25.63;3.43;;;;;;;22.71;46.37;100609.52;127107;1100;62295;-84
2021/06/14 07:08:34;;;;;;;11.80;3.07;;;;;;;22.74;46.47;100606.58;127009;1100;62409;-81
2021/06/14 07:11:01;;;;;;;10.80;3.00;;;;;;;22.78;46.23;100609.88;127086;1100;62444;-82
2021/06/14 07:13:28;;;;;;;11.73;3.03;;;;;;;22.83;46.15;100618.44;127105;1100;62464;-82
2021/06/14 07:15:58;;;;;;;12.20;2.80;;;;;;;22.88;46.26;100621.61;127117;1096;61948;-81
2021/06/14 07:18:44;;;;;;;8.20;3.30;;;;;;;22.91;46.45;100615.97;127015;1100;64269;-83
2021/06/14 07:21:31;;;;;;;5.87;2.40;;;;;;;22.90;46.39;100618.79;126411;1098;64523;-82
2021/06/14 07:23:58;;;;;;;5.23;2.30;;;;;;;22.89;45.71;100619.77;126548;1098;64243;-81
2021/06/14 07:26:38;;;;;;;;;;;;;;;;;;;;;
2021/06/14 07:29:28;;;;;;;6.47;2.10;;;;;;;22.86;45.80;100628.94;126568;1100;62482;-82
2021/06/14 07:32:25;;;;;;;4.93;2.40;;;;;;;22.85;45.51;100632.64;126513;1100;64029;-83
2021/06/14 07:35:01;;;;;;;;;;;;;;;;;;;;;
2021/06/14 07:37:46;;;;;;;;;;;;;;;;;;;;;
2021/06/14 07:40:16;;;;;;;7.30;2.00;;;;;;;22.85;44.95;100631.77;127376;1099;62121;-82
2021/06/14 07:43:04;;;;;;;4.67;2.20;;;;;;;22.87;44.82;100629.81;127342;1099;63201;-82
2021/06/14 07:45:30;;;;;;;5.00;2.00;;;;;;;22.88;45.09;100632.38;127512;1096;62508;-82
2021/06/14 07:47:59;;;;;;;5.67;2.57;;;;;;;22.88;44.51;100637.77;127843;1096;62678;-82
2021/06/14 07:50:26;;;;;;;;;;;;;;;22.86;44.52;100638.86;127887;1097;62289;-82
2021/06/14 07:52:52;;;;;;;11.70;2.97;;;;;;;22.80;44.13;100639.34;127945;1093;62352;-83
2021/06/14 07:55:18;;;;;;;14.53;2.67;;;;;;;22.77;44.35;100637.77;128359;1092;62913;-81
2021/06/14 07:58:14;;;;;;;12.63;2.80;;;;;;;22.75;44.35;100629.82;128325;1093;62054;-81
2021/06/14 08:00:41;;;;;;;10.33;2.67;;;;;;;22.76;44.45;100633.38;127333;1096;62227;-81
2021/06/14 08:03:08;;;;;;;16.17;3.00;;;;;;;22.74;44.12;100633.48;126131;1096;64172;-82
2021/06/14 08:05:44;;;;;;;9.17;2.73;;;;;;;22.74;44.36;100635.33;126105;1096;64294;-81
2021/06/14 08:08:12;;;;;;;13.27;2.87;;;;;;;22.76;44.24;100630.70;126683;1096;62939;-82
2021/06/14 08:10:39;;;;;;;14.87;2.93;;;;;;;22.78;44.22;100634.09;126435;1096;64290;-82
2021/06/14 08:13:25;;;;;;;9.47;2.70;;;;;;;22.76;44.19;100634.23;126486;1096;62521;-82
2021/06/14 08:15:55;;;;;;;10.40;2.60;;;;;;;22.80;44.21;100628.59;126442;1095;64570;-82
2021/06/14 08:18:43;;;;;;;8.03;2.33;;;;;;;22.83;44.14;100631.89;126584;1095;64173;-80
2021/06/14 08:21:42;;;;;;;;;;;;;;;;;;;;;
2021/06/14 08:27:34;;;;;;;6.43;2.30;;;;;;;22.88;44.47;100631.50;126929;1096;64123;-81
2021/06/14 08:30:10;;;;;;;7.70;2.30;;;;;;;22.91;44.42;100631.27;127052;1096;64301;-82
2021/06/14 08:32:50;;;;;;;5.00;2.20;;;;;;;22.92;44.39;100625.76;127015;1096;64159;-80
2021/06/14 08:35:43;;;;;;;7.40;2.40;;;;;;;22.93;44.26;100632.86;126992;1096;62861;-82
2021/06/14 08:38:49;;;;;;;;;;;;;;;;;;;;;
2021/06/14 08:41:40;;;;;;;7.23;2.37;;;;;;;22.96;44.19;100634.45;127565;1092;63971;-81
2021/06/14 08:44:18;;;;;;;6.00;2.20;;;;;;;22.98;43.99;100637.85;128377;1093;62431;-83
2021/06/14 08:46:52;;;;;;;8.07;2.23;;;;;;;22.96;43.43;100637.14;128311;1093;62471;-81
2021/06/14 08:49:18;;;;;;;13.70;2.77;;;;;;;22.90;43.44;100633.09;128379;1093;61967;-82
2021/06/14 08:51:45;;;;;;;14.57;2.47;;;;;;;22.88;42.98;100639.58;128306;1093;62201;-82
2021/06/14 08:54:11;;;;;;;14.27;2.77;;;;;;;22.84;42.58;100635.42;128218;1093;63418;-82
2021/06/14 08:56:37;;;;;;;12.50;2.50;;;;;;;22.83;42.69;100636.43;128223;1093;62142;-82
2021/06/14 08:59:04;;;;;;;13.57;2.87;;;;;;;22.84;42.83;100630.92;128207;1091;62521;-82
2021/06/14 09:01:30;;;;;;;13.17;2.50;;;;;;;22.86;42.98;100634.32;128265;1093;63572;-82
2021/06/14 09:03:56;;;;;;;11.50;2.63;;;;;;;22.81;42.38;100636.53;127846;1096;62075;-82
2021/06/14 09:06:23;;;;;;;10.27;2.60;;;;;;;22.75;42.74;100639.74;128152;1096;62375;-82
2021/06/14 09:08:57;;;;;;;13.53;2.33;;;;;;;22.68;42.04;100641.20;128125;1096;62242;-82
2021/06/14 09:11:24;;;;;;;7.70;2.40;;;;;;;22.56;41.98;100633.15;128187;1096;62523;-81
2021/06/14 09:13:50;;;;;;;10.40;2.60;;;;;;;22.60;42.14;100634.61;128186;1095;62334;-80
2021/06/14 09:16:18;;;;;;;9.73;2.60;;;;;;;22.63;42.27;100629.98;128182;1095;62482;-81
2021/06/14 09:18:44;;;;;;;9.00;2.47;;;;;;;22.54;42.07;100629.72;128352;1095;62403;-82
2021/06/14 09:21:12;;;;;;;9.35;2.40;;;;;;;22.49;41.68;100640.02;128337;1095;62070;-82
2021/06/14 09:23:49;;;;;;;9.07;2.57;;;;;;;22.53;42.11;100627.15;128364;1095;62410;-82
2021/06/14 09:26:29;;;;;;;7.73;2.30;;;;;;;22.56;41.47;100635.00;128229;1096;63470;-83
2021/06/14 09:28:59;;;;;;;6.17;2.00;;;;;;;22.51;41.55;100639.89;128243;1096;62336;-82
2021/06/14 09:31:29;;;;;;;5.83;2.00;;;;;;;22.50;41.00;100630.94;128294;1096;62248;-82
2021/06/14 09:33:56;;;;;;;4.77;2.10;;;;;;;22.53;40.85;100635.22;127948;1096;62086;-82
2021/06/14 09:36:23;;;;;;;10.27;2.07;;;;;;;22.55;41.16;100634.13;128233;1092;63000;-82
2021/06/14 09:39:29;;;;;;;3.57;1.70;;;;;;;22.51;40.43;100640.73;127287;1093;64122;-82
2021/06/14 09:42:32;;;;;;;;;;;;;;;;;;;;;
2021/06/14 09:45:11;;;;;;;11.33;1.70;;;;;;;22.41;40.23;100651.38;127313;1093;64249;-81
2021/06/14 09:47:41;;;;;;;7.83;1.83;;;;;;;22.36;40.05;100650.88;128337;1093;62016;-82
2021/06/14 09:50:08;;;;;;;5.47;2.00;;;;;;;22.36;40.13;100645.50;128219;1093;62029;-81
2021/06/14 09:52:35;;;;;;;10.83;1.80;;;;;;;22.40;40.08;100648.81;128249;1093;62004;-82
2021/06/14 09:55:09;;;;;;;8.90;1.70;;;;;;;22.42;39.71;100636.95;128359;1092;62316;-81
2021/06/14 09:57:35;;;;;;;9.40;2.10;;;;;;;22.47;39.95;100635.73;128299;1093;62862;-82
2021/06/14 10:00:07;;;;;;;4.90;1.50;;;;;;;22.51;39.94;100634.51;128325;1093;61936;-82
2021/06/14 10:02:37;;;;;;;7.77;1.50;;;;;;;22.51;40.20;100640.73;128410;1093;62020;-81
2021/06/14 10:05:22;;;;;;;5.97;1.60;;;;;;;22.51;39.64;100651.48;128259;1093;62219;-83
2021/06/14 10:07:55;;;;;;;6.80;1.53;;;;;;;22.50;39.80;100649.77;128254;1093;62889;-82
2021/06/14 10:10:28;;;;;;;4.57;1.40;;;;;;;22.48;39.18;100651.74;128366;1093;63019;-82
2021/06/14 10:12:58;;;;;;;6.17;1.50;;;;;;;22.51;39.40;100654.17;128322;1093;62995;-82
2021/06/14 10:15:38;;;;;;;7.53;1.60;;;;;;;22.56;39.60;100648.45;128227;1093;62938;-81
2021/06/14 10:18:05;;;;;;;12.70;1.80;;;;;;;22.62;39.63;100647.94;128251;1093;64324;-81
2021/06/14 10:20:32;;;;;;;10.00;1.67;;;;;;;22.67;39.87;100634.13;128303;1093;62263;-81
2021/06/14 10:23:00;;;;;;;5.83;1.30;;;;;;;22.72;39.22;100643.53;128284;1093;62876;-82
2021/06/14 10:25:27;;;;;;;5.50;1.30;;;;;;;22.70;39.08;100639.25;128228;1093;62227;-82
2021/06/14 10:27:54;;;;;;;4.30;1.73;;;;;;;22.65;39.42;100642.33;128263;1093;62166;-82
2021/06/14 10:30:22;;;;;;;5.40;1.70;;;;;;;22.59;39.03;100650.88;128249;1093;62975;-81
2021/06/14 10:32:49;;;;;;;7.27;1.60;;;;;;;22.56;39.17;100637.69;128400;1092;62265;-82
2021/06/14 10:35:16;;;;;;;4.93;1.50;;;;;;;22.57;39.38;100648.32;128369;1093;62389;-83
2021/06/14 10:38:03;;;;;;;5.23;1.70;;;;;;;22.60;39.46;100644.53;128354;1093;63330;-82
2021/06/14 10:40:29;;;;;;;5.07;1.60;;;;;;;22.64;39.78;100637.05;128420;1092;62259;-81
2021/06/14 10:42:57;;;;;;;4.87;1.50;;;;;;;22.64;39.21;100631.66;128427;1093;62279;-82
2021/06/14 10:45:27;;;;;;;9.90;1.70;;;;;;;22.63;39.53;100630.82;128396;1093;63223;-81
2021/06/14 10:47:54;;;;;;;10.63;1.70;;;;;;;22.64;39.49;100634.36;128412;1093;62792;-81
2021/06/14 10:50:27;;;;;;;8.70;1.70;;;;;;;22.66;39.51;100632.41;128286;1093;62741;-82
2021/06/14 10:52:55;;;;;;;9.67;1.67;;;;;;;22.62;39.55;100626.41;128278;1093;61913;-82
2021/06/14 10:55:29;;;;;;;9.27;1.70;;;;;;;22.61;39.44;100627.38;128309;1093;62400;-81
2021/06/14 10:57:56;;;;;;;4.47;1.63;;;;;;;22.62;39.48;100626.41;128288;1093;62738;-81
2021/06/14 11:00:32;;;;;;;7.27;1.73;;;;;;;22.64;39.57;100627.16;128231;1093;62472;-81
2021/06/14 11:03:09;;;;;;;5.70;1.77;;;;;;;22.67;39.38;100618.83;128333;1093;61920;-81
2021/06/14 11:05:46;;;;;;;8.15;1.60;;;;;;;22.71;39.29;100619.45;128309;1093;62440;-81
2021/06/14 11:08:19;;;;;;;3.27;1.43;;;;;;;22.74;39.22;100619.19;128349;1093;62911;-81
2021/06/14 11:10:55;;;;;;;5.93;1.53;;;;;;;22.73;39.06;100614.77;128380;1093;62242;-81
2021/06/14 11:13:24;;;;;;;;;;;;;;;22.65;38.84;100611.86;128421;1093;62292;-82
2021/06/14 11:15:55;;;;;;;5.03;1.43;;;;;;;22.56;38.99;100606.25;128419;1093;61820;-81
2021/06/14 11:18:32;;;;;;;3.20;1.40;;;;;;;22.59;39.12;100615.91;128347;1093;62966;-82
2021/06/14 11:21:11;;;;;;;6.47;1.53;;;;;;;22.61;38.79;100611.24;128360;1093;62063;-81
2021/06/14 11:23:45;;;;;;;;;;;;;;;22.62;38.68;100604.89;128528;1093;61906;-81
2021/06/14 11:26:12;;;;;;;6.30;1.37;;;;;;;22.60;39.11;100594.26;128434;1092;62545;-82
2021/06/14 11:28:56;;;;;;;15.03;1.87;;;;;;;22.60;38.50;100618.47;127356;1093;64173;-83
2021/06/14 11:35:04;;;;;;;7.27;2.10;;;;;;;22.59;38.72;100621.29;127250;1093;64125;-81
2021/06/14 11:39:05;;;;;;;7.07;1.80;;;;;;;22.57;38.86;100626.80;126999;1095;64150;-81
2021/06/14 11:41:31;;;;;;;5.93;1.70;;;;;;;22.52;38.75;100625.47;127909;1096;62938;-82
2021/06/14 11:44:27;;;;;;;9.27;1.63;;;;;;;22.47;39.01;100622.28;128055;1096;62149;-82
2021/06/14 11:46:56;;;;;;;8.97;2.20;;;;;;;22.42;39.25;100622.63;127998;1095;62175;-82
2021/06/14 11:49:34;;;;;;;3.00;1.63;;;;;;;22.43;38.99;100627.05;127838;1096;62523;-82
2021/06/14 11:52:00;;;;;;;6.05;1.78;;;;;;;22.41;39.30;100626.30;127867;1095;62656;-82
2021/06/14 11:54:27;;;;;;;8.27;2.00;;;;;;;22.41;39.23;100628.98;128023;1096;61914;-82
2021/06/14 11:56:59;;;;;;;24.80;2.30;;;;;;;22.42;39.34;100619.95;128153;1096;62270;-82
2021/06/14 11:59:36;;;;;;;26.43;2.70;;;;;;;22.48;39.49;100614.09;128063;1096;62249;-82
2021/06/14 12:02:04;;;;;;;26.13;2.30;;;;;;;22.52;39.92;100612.86;126964;1097;63598;-82
2021/06/14 12:04:51;;;;;;;7.60;1.80;;;;;;;22.56;39.28;100610.78;127185;1096;65434;-82
2021/06/14 12:08:13;;;;;;;;;;;;;;;;;;;;;
2021/06/14 12:12:29;;;;;;;8.50;2.03;;;;;;;22.45;39.45;100603.58;127257;1096;64157;-83
2021/06/14 12:19:34;;;;;;;;;;;;;;;;;;;;;
2021/06/14 12:23:09;;;;;;;;;;;;;;;;;;;;;
2021/06/14 12:26:42;;;;;;;;;;;;;;;;;;;;;
2021/06/14 12:34:50;;;;;;;6.80;1.80;;;;;;;22.51;40.30;100594.16;125213;1108;64120;-84
2021/06/14 12:37:55;;;;;;;16.85;2.00;;;;;;;22.51;40.11;100592.31;124796;1119;64190;-84
2021/06/14 12:41:25;;;;;;;7.90;1.90;;;;;;;22.51;40.04;100591.47;124532;1119;64144;-84
2021/06/14 12:44:56;;;;;;;;;;;;;;;;;;;;;
2021/06/14 12:48:54;;;;;;;6.30;1.55;;;;;;;22.57;39.98;100586.45;124383;1124;64429;-83
2021/06/14 12:52:17;;;;;;;5.65;1.70;;;;;;;22.64;40.32;100583.23;123876;1128;64185;-84
2021/06/14 12:55:26;;;;;;;;;;;;;;;;;;;;;
2021/06/14 12:59:08;;;;;;;3.57;1.63;;;;;;;22.67;39.99;100593.77;123463;1125;64275;-83
2021/06/14 13:03:07;;;;;;;;;;;;;;;;;;;;;
2021/06/14 13:10:21;;;;;;;;;;;;;;;;;;;;;
2021/06/14 13:13:57;;;;;;;;;;;;;;;;;;;;;
2021/06/14 13:18:02;;;;;;;5.75;1.60;;;;;;;22.69;40.13;100589.98;123919;1125;64269;-83
2021/06/14 13:21:49;;;;;;;4.05;1.60;;;;;;;22.72;40.12;100596.95;124040;1122;64131;-84
2021/06/14 13:25:44;;;;;;;3.60;1.55;;;;;;;22.75;39.81;100588.61;124398;1121;65719;-83
2021/06/14 13:29:13;;;;;;;6.30;1.85;;;;;;;22.77;40.48;100583.94;124380;1119;64381;-83
2021/06/14 13:32:45;;;;;;;;;;;;;;;;;;;;;
2021/06/14 13:36:29;;;;;;;;;;;;;;;;;;;;;
2021/06/14 13:39:54;;;;;;;;;;;;;;;;;;;;;
2021/06/14 13:44:07;;;;;;;3.30;1.70;;;;;;;22.90;40.75;100583.80;124837;1115;64138;-83
2021/06/14 13:47:13;;;;;;;;;;;;;;;;;;;;;
2021/06/14 13:51:05;;;;;;;;;;;;;;;;;;;;;
2021/06/14 13:54:39;;;;;;;;;;;;;;;;;;;;;
2021/06/14 13:58:22;;;;;;;;;;;;;;;;;;;;;
2021/06/14 14:02:34;;;;;;;4.50;1.60;;;;;;;23.02;41.06;100579.23;124511;1122;64246;-83
2021/06/14 14:06:27;;;;;;;6.15;1.75;;;;;;;23.04;41.04;100571.88;124436;1121;64430;-82
2021/06/14 14:10:00;;;;;;;;;;;;;;;;;;;;;
2021/06/14 14:13:33;;;;;;;;;;;;;;;;;;;;;
2021/06/14 14:17:20;;;;;;;;;;;;;;;;;;;;;
2021/06/14 14:20:49;;;;;;;;;;;;;;;;;;;;;
2021/06/14 14:24:21;;;;;;;;;;;;;;;;;;;;;
2021/06/14 14:31:16;;;;;;;;;;;;;;;;;;;;;
2021/06/14 14:35:06;;;;;;;;;;;;;;;;;;;;;
2021/06/14 14:38:32;;;;;;;;;;;;;;;;;;;;;
2021/06/14 14:50:30;;;;;;;4.55;1.50;;;;;;;23.27;41.42;100564.61;123683;1127;64212;-83
2021/06/14 14:53:48;;;;;;;3.45;1.40;;;;;;;23.29;41.88;100561.78;123921;1127;64080;-84
2021/06/14 14:57:34;;;;;;;;;;;;;;;;;;;;;
2021/06/14 15:01:01;;;;;;;4.50;1.60;;;;;;;23.33;42.17;100557.84;123907;1127;64300;-82
2021/06/14 15:04:21;;;;;;;;;;;;;;;;;;;;;
2021/06/14 15:07:59;;;;;;;;;;;;;;;;;;;;;
2021/06/14 15:11:27;;;;;;;2.40;1.40;;;;;;;23.36;41.73;100546.80;123579;1128;64632;-84
2021/06/14 15:15:00;;;;;;;3.90;1.40;;;;;;;23.37;41.88;100549.34;123523;1128;64350;-84
2021/06/14 15:18:14;;;;;;;;;;;;;;;;;;;;;
2021/06/14 15:21:30;;;;;;;3.50;1.60;;;;;;;23.38;41.47;100548.38;123080;1132;64332;-84
2021/06/14 15:24:56;;;;;;;2.50;1.35;;;;;;;23.40;41.58;100541.03;123587;1127;64652;-83
2021/06/14 15:28:33;;;;;;;3.40;1.50;;;;;;;23.41;41.01;100536.48;124489;1121;64162;-83
2021/06/14 15:32:14;;;;;;;;;;;;;;;;;;;;;
2021/06/14 15:36:25;;;;;;;3.50;1.40;;;;;;;23.41;41.03;100549.95;124032;1125;64227;-83
2021/06/14 15:39:55;;;;;;;2.70;1.50;;;;;;;23.41;40.69;100542.72;123983;1125;64236;-84
2021/06/14 15:42:57;;;;;;;3.10;1.50;;;;;;;23.42;40.90;100546.28;123856;1128;64234;-84
2021/06/14 15:46:13;;;;;;;;;;;;;;;;;;;;;
2021/06/14 15:50:23;;;;;;;3.45;1.60;;;;;;;23.45;40.44;100566.72;123271;1130;64288;-82
2021/06/14 15:53:39;;;;;;;2.80;1.60;;;;;;;23.45;40.28;100559.48;123399;1131;64838;-82
2021/06/14 15:57:20;;;;;;;;;;;;;;;;;;;;;
2021/06/14 16:00:58;;;;;;;;;;;;;;;;;;;;;
2021/06/14 16:04:32;;;;;;;;;;;;;;;;;;;;;
2021/06/14 16:08:02;;;;;;;;;;;;;;;;;;;;;
2021/06/14 16:11:36;;;;;;;2.95;1.50;;;;;;;23.47;39.88;100568.30;123514;1129;64198;-83
2021/06/14 16:19:38;;;;;;;;;;;;;;;;;;;;;
2021/06/14 16:22:46;;;;;;;2.17;1.50;;;;;;;23.45;40.36;100567.56;123500;1129;64393;-83
2021/06/14 16:26:24;;;;;;;;;;;;;;;;;;;;;
2021/06/14 16:29:42;;;;;;;;;;;;;;;;;;;;;
2021/06/14 16:33:09;;;;;;;3.40;1.50;;;;;;;23.41;40.33;100569.66;123120;1130;64407;-84
2021/06/14 16:36:39;;;;;;;2.90;1.40;;;;;;;23.40;40.73;100567.09;123079;1132;64240;-83
2021/06/14 16:40:37;;;;;;;;;;;;;;;;;;;;;
2021/06/14 16:44:13;;;;;;;;;;;;;;;;;;;;;
2021/06/14 16:48:00;;;;;;;;;;;;;;;;;;;;;
2021/06/14 16:59:11;;;;;;;2.40;1.40;;;;;;;23.33;41.27;100593.70;123522;1129;64280;-84
2021/06/14 17:02:49;;;;;;;;;;;;;;;;;;;;;
2021/06/14 17:06:29;;;;;;;;;;;;;;;;;;;;;
2021/06/14 17:13:43;;;;;;;;;;;;;;;;;;;;;
2021/06/14 17:17:00;;;;;;;;;;;;;;;;;;;;;
2021/06/14 17:20:46;;;;;;;2.10;1.30;;;;;;;23.29;42.08;100621.03;123001;1131;64290;-84
2021/06/14 17:23:42;;;;;;;3.10;1.30;;;;;;;23.29;42.03;100615.64;123401;1130;64307;-84
2021/06/14 17:27:17;;;;;;;2.00;1.40;;;;;;;23.26;42.07;100622.98;123099;1132;64032;-84
2021/06/14 17:30:48;;;;;;;1.60;1.25;;;;;;;23.26;42.13;100625.67;123156;1130;64177;-83
2021/06/14 17:34:37;;;;;;;1.80;1.40;;;;;;;23.26;42.46;100624.83;123003;1130;64476;-85
2021/06/14 17:38:04;;;;;;;2.45;1.40;;;;;;;23.26;42.62;100624.83;123445;1130;64222;-84
2021/06/14 17:41:02;;;;;;;;;;;;;;;;;;;;;
2021/06/14 17:44:41;;;;;;;;;;;;;;;;;;;;;
2021/06/14 17:49:06;;;;;;;2.05;1.30;;;;;;;23.25;42.92;100625.81;123965;1128;64209;-83
2021/06/14 17:52:24;;;;;;;2.85;1.40;;;;;;;23.26;42.51;100622.98;123629;1128;64374;-83
2021/06/14 18:00:00;;;;;;;2.30;1.50;;;;;;;23.25;42.61;100632.07;123961;1128;64390;-83
2021/06/14 18:03:09;;;;;;;;;;;;;;;;;;;;;
2021/06/14 18:06:34;;;;;;;;;;;;;;;;;;;;;
2021/06/14 18:09:53;;;;;;;;;;;;;;;;;;;;;
2021/06/14 18:17:18;;;;;;;;;;;;;;;;;;;;;
2021/06/14 18:20:46;;;;;;;2.15;1.40;;;;;;;23.25;43.44;100655.43;123026;1130;64182;-83
2021/06/14 18:24:14;;;;;;;2.70;1.57;;;;;;;23.25;43.33;100650.05;122946;1132;64359;-83
2021/06/14 18:30:58;;;;;;;;;;;;;;;;;;;;;
2021/06/14 18:38:07;;;;;;;;;;;;;;;;;;;;;
2021/06/14 18:41:46;;;;;;;;;;;;;;;;;;;;;
2021/06/14 18:45:27;;;;;;;;;;;;;;;;;;;;;
2021/06/14 18:48:55;;;;;;;;;;;;;;;;;;;;;
2021/06/14 18:51:59;;;;;;;2.00;1.30;;;;;;;23.22;44.35;100694.24;123658;1126;64326;-83
2021/06/14 18:59:58;;;;;;;2.20;1.50;;;;;;;23.22;44.72;100701.48;124602;1121;66114;-82
2021/06/14 19:03:38;;;;;;;1.95;1.40;;;;;;;23.22;44.83;100701.48;124504;1121;64158;-84
2021/06/14 19:07:24;;;;;;;3.10;1.60;;;;;;;23.22;44.68;100706.87;124475;1125;64213;-84
2021/06/14 19:10:36;;;;;;;;;;;;;;;;;;;;;
2021/06/14 19:14:35;;;;;;;1.70;1.30;;;;;;;23.22;44.84;100709.56;123718;1125;64424;-83
2021/06/14 19:17:43;;;;;;;;;;;;;;;23.20;44.83;100711.50;123741;1127;64176;-84
2021/06/14 19:21:01;;;;;;;;;;;;;;;;;;;;;
2021/06/14 19:24:50;;;;;;;2.03;1.38;;;;;;;23.20;44.85;100711.50;123383;1128;64453;-83
2021/06/14 19:28:06;;;;;;;;;;;;;;;;;;;;;
2021/06/14 19:31:30;;;;;;;3.30;1.50;;;;;;;23.19;45.25;100713.36;123563;1128;64157;-83
2021/06/14 19:34:37;;;;;;;;;;;;;;;;;;;;;
2021/06/14 19:38:35;;;;;;;;;;;;;;;;;;;;;
2021/06/14 19:41:54;;;;;;;2.70;1.35;;;;;;;23.21;45.35;100734.77;123600;1128;62740;-84
2021/06/14 19:45:42;;;;;;;1.95;1.40;;;;;;;23.20;45.30;100733.92;123612;1128;64467;-84
2021/06/14 19:53:29;;;;;;;1.70;1.40;;;;;;;23.20;45.71;100738.44;124071;1125;64203;-81
2021/06/14 20:04:36;;;;;;;;;;;;;;;;;;;;;
2021/06/14 20:11:49;;;;;;;;;;;;;;;;;;;;;
2021/06/14 20:15:16;;;;;;;;;;;;;;;;;;;;;
2021/06/14 20:23:07;;;;;;;;;;;;;;;;;;;;;
2021/06/14 20:26:56;;;;;;;2.27;1.30;;;;;;;23.17;46.27;100736.84;126473;1099;64567;-84